Terminal Aerodrome Forecast
Issued by NWS Cleveland, OH

Home | Current Version | Previous Version | Graphics & Text | Print | Product List | Glossary On
Versions: 1 2 3 4 5 6 7 8 9 10 11 12 13 14 15 16 17 18 19 20 21 22
000
FTUS41 KCLE 221000 AAA
TAFCAK
TAF AMD
KCAK 221053Z 2211/2306 36010KT P6SM OVC005
     FM221400 36010KT P6SM OVC012
     FM221800 36010KT P6SM OVC025
     FM222100 36010KT P6SM BKN035
     FM222300 36006KT P6SM SCT035=

USA.gov is the U.S. government's official web portal to all federal, state and local government web resources and services.